createdAt,value
2023-04-17T00:12:13.398Z,26.95
2023-04-17T00:42:16.386Z,31.55
2023-04-17T01:12:24.159Z,36.30
2023-04-17T01:42:27.197Z,34.40
2023-04-17T02:12:30.115Z,33.13
2023-04-17T02:42:33.044Z,33.58
2023-04-17T03:12:36.054Z,35.20
2023-04-17T03:42:39.356Z,38.90
2023-04-17T04:12:42.284Z,42.50
2023-04-17T04:42:45.511Z,42.13
2023-04-17T05:12:48.559Z,37.13
2023-04-17T05:42:51.496Z,53.15
2023-04-17T06:12:54.596Z,36.70
2023-04-17T06:42:57.599Z,29.60
2023-04-17T07:13:00.542Z,28.60
2023-04-17T07:43:03.522Z,26.25
2023-04-17T08:13:06.552Z,20.75
2023-04-17T08:43:13.842Z,13.88
2023-04-17T09:13:17.929Z,11.27
2023-04-17T09:43:20.958Z,14.00
2023-04-17T10:13:26.931Z,13.85
2023-04-17T10:43:30.196Z,10.45
2023-04-17T11:13:33.586Z,9.48
2023-04-17T11:43:39.049Z,9.10
2023-04-17T12:13:42.152Z,9.23
2023-04-17T12:43:45.142Z,4.75
2023-04-17T13:13:48.107Z,3.67
2023-04-17T13:43:51.112Z,7.10
2023-04-17T14:13:55.824Z,5.80
2023-04-17T14:43:59.189Z,10.73
2023-04-17T15:14:02.290Z,4.88
2023-04-17T15:44:06.676Z,7.40
2023-04-17T16:14:09.821Z,7.45
2023-04-17T16:44:12.879Z,7.43
2023-04-17T17:14:16.124Z,6.80
2023-04-17T17:44:19.124Z,9.73
2023-04-17T18:14:22.232Z,7.72
2023-04-17T18:44:25.589Z,10.30
2023-04-17T19:14:28.490Z,11.40
2023-04-17T19:44:31.426Z,8.85
2023-04-17T20:14:34.399Z,10.43
2023-04-17T20:44:37.351Z,11.85
2023-04-17T21:14:43.129Z,14.80
2023-04-17T21:44:46.336Z,7.93
2023-04-17T22:14:49.280Z,10.77
2023-04-17T22:44:52.204Z,15.05
2023-04-17T23:14:55.106Z,10.35
2023-04-17T23:44:58.409Z,9.55
